Latest Coastal Weather Observations for Charles Point

IDD60701

Issued at 11:01 am CST Saturday 30 April 2016 (issued every 10 minutes, with the page automatically refreshed every 10 minutes)

About coastal observations | Map of coastal stations | Coastal observations for NT | Marine services | Other Formats
Station Details ID: 014031 Name: CHARLES POINT Lat: -12.39 Lon: 130.63 Height: 14.0 m
Data from the previous 72 hours. | See also: Recent months for locations in Northern Territory
Date/Time
CST
Temp

°C
Wind Pressure Rain
since 9am
mm
Weather Cloud Vis
km
Sea
Height
m
Swell
Dir
 
Speed
knots
Gust
knots
hPa Trend Height
m
Period
s
Dir
30/11:00am 33.3 ENE 4 6 1012.9 - 0.0 - - - - - - -
30/10:30am 32.4 ENE 3 5 1013.1 - 0.0 - - - - - - -
30/10:00am 31.4 SSE 3 6 1013.2 - 0.0 - - - - - - -
30/09:30am 30.4 S 4 5 1013.0 - 0.0 - - - - - - -
30/09:00am 28.9 SSE 3 5 1013.1 - - - - - - - - -
30/08:30am 27.7 SSE 3 5 1012.8 - - - - - - - - -
30/08:00am 26.8 SSE 4 6 1012.4 - - - - - - - - -
30/07:30am 26.3 SSE 3 5 1012.1 - - - - - - - - -
30/07:00am 26.1 SSE 4 5 1011.7 - - - - - - - - -
30/05:00am 25.9 SSE 3 5 1010.7 - - - - - - - - -
30/04:30am 25.9 - - - 1010.6 - - - - - - - - -
30/02:30am 25.9 WSW 1 2 1010.4 - 0.0 - - - - - - -
30/02:00am 26.5 SW 1 2 1010.4 - 0.0 - - - - - - -
30/01:30am 26.6 WSW 2 3 1010.6 - 0.0 - - - - - - -
30/01:00am 26.7 WSW 2 3 1010.9 - 0.0 - - - - - - -
30/12:30am 26.7 WSW 2 3 1011.3 - 0.0 - - - - - - -
30/12:00am 26.8 WSW 2 4 1011.5 - 0.0 - - - - - - -
 
Date/Time
CST
Temp

°C
Wind Pressure Rain
since 9am
mm
Weather Cloud Vis
km
Sea
Height
m
Swell
Dir
 
Speed
knots
Gust
knots
hPa Trend Height
m
Period
s
Dir
29/11:30pm 26.5 W 2 3 1011.8 - 0.0 - - - - - - -
29/11:00pm 26.7 W 2 4 1012.0 - 0.0 - - - - - - -
29/10:30pm 26.5 W 2 3 1012.2 - 0.0 - - - - - - -
29/10:00pm 26.7 W 2 2 1012.4 - 0.0 - - - - - - -
29/09:30pm 27.1 CALM 0 1 1012.4 - 0.0 - - - - - - -
29/09:00pm 27.6 WNW 1 2 1012.1 - 0.0 - - - - - - -
29/08:30pm 27.8 WNW 2 3 1011.8 - 0.0 - - - - - - -
29/08:00pm 28.4 W 2 3 1011.5 - 0.0 - - - - - - -
29/07:30pm 28.5 W 2 3 1011.1 - 0.0 - - - - - - -
29/07:00pm 28.8 WSW 2 3 1010.8 - 0.0 - - - - - - -
29/06:30pm 29.6 W 2 4 1010.5 - 0.0 - - - - - - -
29/06:00pm 31.0 W 2 4 1010.3 - 0.0 - - - - - - -
29/05:30pm 31.8 WNW 4 6 1010.0 - 0.0 - - - - - - -
29/05:00pm 32.0 WNW 5 8 1009.7 - 0.0 - - - - - - -
29/04:30pm 32.2 WNW 5 7 1009.4 - 0.0 - - - - - - -
29/04:00pm 31.9 NW 5 7 1009.3 - 0.0 - - - - - - -
29/03:30pm 32.2 NNW 4 5 1009.5 - 0.0 - - - - - - -
29/03:00pm 31.8 NNW 5 7 1009.7 - 0.0 - - - - - - -
29/02:30pm 32.1 N 5 8 1009.9 - 0.0 - - - - - - -
29/02:00pm 32.3 NNW 5 7 1010.2 - 0.0 - - - - - - -
29/01:30pm 32.5 WNW 3 5 1010.4 - 0.0 - - - - - - -
29/01:00pm 30.8 SW 1 2 1011.0 - 0.0 - - - - - - -
29/12:30pm 33.0 NNW 3 4 1011.4 - 0.0 - - - - - - -
29/12:00pm 32.2 NNW 3 5 1011.9 - 0.0 - - - - - - -
29/11:30am 32.0 NNW 4 5 1012.4 - 0.0 - - - - - - -
29/11:00am 31.6 NW 4 5 1012.8 - 0.0 - - - - - - -
29/10:30am 32.3 NW 3 4 1012.9 - 0.0 - - - - - - -
29/10:00am 31.3 WNW 2 3 1012.8 - 0.0 - - - - - - -
29/09:30am 30.6 W 2 2 1012.8 - 0.0 - - - - - - -
29/09:00am 30.5 WSW 1 2 1012.5 - 0.0 - - - - - - -
29/08:30am 29.1 W 2 2 1012.3 - 0.0 - - - - - - -
29/08:00am 26.7 CALM 0 0 1012.1 - 0.0 - - - - - - -
29/07:30am 26.0 CALM 0 0 1011.9 - 0.0 - - - - - - -
29/07:00am 25.8 CALM 0 0 1011.6 - 0.0 - - - - - - -
29/06:30am 25.9 W 2 2 1011.2 - 0.0 - - - - - - -
29/06:00am 26.1 W 1 1 1010.9 - 0.0 - - - - - - -
29/05:30am 26.3 W 1 2 1010.8 - 0.0 - - - - - - -
29/05:00am 26.4 WNW 1 2 1010.7 - 0.0 - - - - - - -
29/04:30am 26.5 W 1 1 1010.6 - 0.0 - - - - - - -
29/04:00am 26.8 WNW 1 2 1010.6 - 0.0 - - - - - - -
29/03:30am 26.9 WNW 1 2 1010.7 - 0.0 - - - - - - -
29/03:00am 27.1 WNW 1 3 1010.8 - 0.0 - - - - - - -
29/02:30am 27.0 W 2 3 1011.0 - 0.0 - - - - - - -
29/02:00am 27.0 W 1 2 1011.2 - 0.0 - - - - - - -
29/01:30am 26.6 W 2 3 1011.4 - 0.0 - - - - - - -
29/01:00am 26.7 W 2 2 1011.6 - 0.0 - - - - - - -
29/12:30am 26.9 WNW 2 3 1011.6 - 0.0 - - - - - - -
29/12:00am 27.5 WNW 2 4 1011.6 - 0.0 - - - - - - -
 
Date/Time
CST
Temp

°C
Wind Pressure Rain
since 9am
mm
Weather Cloud Vis
km
Sea
Height
m
Swell
Dir
 
Speed
knots
Gust
knots
hPa Trend Height
m
Period
s
Dir
28/11:30pm 29.1 NW 5 7 1011.7 - 0.0 - - - - - - -
28/11:00pm 29.4 NW 5 8 1011.9 - 0.0 - - - - - - -
28/10:30pm 29.6 NNW 6 9 1011.9 - 0.0 - - - - - - -
28/10:00pm 29.8 NNW 6 9 1011.9 - 0.0 - - - - - - -
28/09:30pm 29.8 NW 7 9 1011.8 - 0.0 - - - - - - -
28/09:00pm 30.3 NNW 7 11 1011.4 - 0.0 - - - - - - -
28/08:30pm 30.1 NNW 4 5 1010.8 - 0.0 - - - - - - -
28/08:00pm 30.4 N 4 5 1010.4 - 0.0 - - - - - - -
28/07:30pm 30.8 N 5 6 1010.2 - 0.0 - - - - - - -
28/07:00pm 31.2 N 7 9 1010.0 - 0.0 - - - - - - -
28/06:30pm 31.3 N 8 9 1009.8 - 0.0 - - - - - - -
28/06:00pm 31.1 N 7 9 1009.6 - 0.0 - - - - - - -
28/05:30pm 31.0 N 8 9 1009.3 - 0.0 - - - - - - -
28/05:00pm 31.5 NNE 7 10 1008.9 - 0.0 - - - - - - -
28/04:30pm 31.7 NNE 7 10 1008.7 - 0.0 - - - - - - -
28/04:00pm 32.6 NNE 6 9 1008.7 - 0.0 - - - - - - -
28/03:30pm 31.9 NNE 6 9 1008.7 - 0.0 - - - - - - -
28/03:00pm 32.2 NE 8 11 1008.9 - 0.0 - - - - - - -
28/02:30pm 32.3 NE 7 11 1009.2 - 0.0 - - - - - - -
28/02:00pm 32.1 NE 7 10 1009.6 - 0.0 - - - - - - -
28/01:30pm 32.3 NE 6 9 1010.0 - 0.0 - - - - - - -
28/01:00pm 31.6 NE 7 10 1010.4 - 0.0 - - - - - - -
28/12:30pm 31.6 ENE 5 9 1010.9 - 0.0 - - - - - - -
28/12:00pm 31.4 NE 6 9 1011.3 - 0.0 - - - - - - -
28/11:30am 29.9 NE 7 10 1011.7 - 0.0 - - - - - - -
28/11:00am 29.8 NE 8 11 1012.1 - 0.0 - - - - - - -
28/10:30am 29.4 NE 7 9 1012.3 - 0.0 - - - - - - -
28/10:00am 28.9 NE 8 12 1012.4 - 0.0 - - - - - - -
28/09:30am 29.5 E 3 9 1012.0 - 0.0 - - - - - - -
28/09:00am 30.3 SE 3 5 1011.5 - 0.0 - - - - - - -
28/08:30am 29.2 SE 2 3 1011.1 - 0.0 - - - - - - -
28/08:00am 27.5 SE 3 5 1010.7 - 0.0 - - - - - - -
28/07:30am 24.8 SSE 2 3 1010.3 - 0.0 - - - - - - -
28/07:00am 24.7 SSE 2 3 1009.9 - 0.0 - - - - - - -
28/06:30am 24.7 S 3 4 1009.6 - 0.0 - - - - - - -
28/06:00am 24.9 SSE 3 5 1009.4 - 0.0 - - - - - - -
28/05:30am 25.1 SE 3 5 1009.4 - 0.0 - - - - - - -
28/05:00am 25.2 SE 3 4 1009.0 - 0.0 - - - - - - -
28/04:30am 25.4 SSE 2 2 1009.0 - 0.0 - - - - - - -
28/04:00am 26.5 SSE 3 3 1008.8 - 0.0 - - - - - - -
28/03:30am 26.6 S 4 5 1008.9 - 0.0 - - - - - - -
28/03:00am 26.3 SSW 3 5 1009.0 - 0.0 - - - - - - -
28/02:30am 26.7 CALM 0 0 1009.0 - 0.0 - - - - - - -
28/02:00am 26.6 SSW 2 2 1009.4 - 0.0 - - - - - - -
28/01:30am 26.5 S 2 3 1009.8 - 0.0 - - - - - - -
28/01:00am 26.6 S 3 5 1010.1 - 0.0 - - - - - - -
28/12:30am 26.7 S 3 5 1010.2 - 0.0 - - - - - - -
28/12:00am 26.7 S 4 6 1010.2 - 0.0 - - - - - - -
 
Date/Time
CST
Temp

°C
Wind Pressure Rain
since 9am
mm
Weather Cloud Vis
km
Sea
Height
m
Swell
Dir
 
Speed
knots
Gust
knots
hPa Trend Height
m
Period
s
Dir
27/11:30pm 26.7 SSW 3 5 1010.4 - 0.0 - - - - - - -
27/11:00pm 26.1 SSW 3 4 1010.5 - 0.0 - - - - - - -
27/10:30pm 26.3 S 4 5 1010.6 - 0.0 - - - - - - -
27/10:00pm 25.9 SSW 3 4 1010.3 - 0.0 - - - - - - -
27/09:30pm 26.1 SSW 2 3 1010.2 - 0.0 - - - - - - -
27/09:00pm 26.4 SSW 2 2 1009.9 - 0.0 - - - - - - -
27/08:30pm 27.0 S 3 3 1009.7 - 0.0 - - - - - - -
27/08:00pm 27.3 S 4 5 1009.7 - 0.0 - - - - - - -
27/07:30pm 28.5 N 1 2 1009.3 - 0.0 - - - - - - -
27/07:00pm 29.8 NNE 3 4 1009.1 - 0.0 - - - - - - -
27/06:30pm 30.2 N 5 6 1008.8 - 0.0 - - - - - - -
27/06:00pm 30.4 N 6 7 1008.6 - 0.0 - - - - - - -
27/05:30pm 30.8 N 6 8 1008.4 - 0.0 - - - - - - -
27/05:00pm 31.2 N 8 9 1008.3 - 0.0 - - - - - - -
27/04:30pm 31.8 N 7 8 1008.2 - 0.0 - - - - - - -
27/04:00pm 32.0 N 5 7 1008.2 - 0.0 - - - - - - -
27/03:30pm 32.3 NNE 5 7 1008.3 - 0.0 - - - - - - -
27/03:00pm 31.8 NNE 5 8 1008.4 - 0.0 - - - - - - -
27/02:30pm 32.1 NNE 5 7 1008.9 - 0.0 - - - - - - -
27/02:00pm 32.1 NNE 5 8 1009.2 - 0.0 - - - - - - -
27/01:30pm 32.0 NE 6 8 1009.9 - 0.0 - - - - - - -
27/01:00pm 32.5 ENE 4 7 1010.1 - 0.0 - - - - - - -
27/12:30pm 31.9 NE 6 11 1010.6 - 0.0 - - - - - - -
27/12:00pm 32.6 ENE 4 8 1010.9 - 0.0 - - - - - - -
27/11:30am 31.4 ENE 5 8 1011.4 - 0.0 - - - - - - -

Other Formats:

Comma delimited format used in spreadsheet applications
http://www.bom.gov.au/fwo/IDD60701/IDD60701.99510.axf

JavaScript Object Notation format (JSON) in row-major order
http://www.bom.gov.au/fwo/IDD60701/IDD60701.99510.json